Gure Amuitz — EASO — position and weather

sailwx.info

Track history (hours):
 
Tides and Currents Weather Stations Pressure Air Temp Water Temp Dewpoint Dewpoint Depression Visibility Wind Speed Wind Dir Waves Ship Positions

Gure Amuitz

Last reported at 2018-Apr-20 17:36 UTC. Time now 2018-Apr-21 11:52 UTC.
Position N 43°23' W 001°48'.

Length 28 m.

Type: Fishing. MMSI: 224010590.

Date/timePositionNaut miles runAvg speedWind from/ knotsBaromVisibWave heightAir tempDewpointWater temp
2018-Apr-20 17:36N 43°23' W 001°48'0 0.0
2018-Apr-20 17:30N 43°23' W 001°48'0 0.0
2018-Apr-20 17:00N 43°23' W 001°48'0 0.0
2018-Apr-20 16:30N 43°23' W 001°48'0 0.0
2018-Apr-20 16:00N 43°23' W 001°48'0 0.0
2018-Apr-20 15:30N 43°23' W 001°48'0 0.0
2018-Apr-20 15:00N 43°23' W 001°48'0 0.0
2018-Apr-20 14:30N 43°23' W 001°48'0 0.0
2018-Apr-20 14:00N 43°23' W 001°48'2 3.2
2018-Apr-20 13:30N 43°25' W 001°47'510.0
2018-Apr-20 12:59N 43°30' W 001°47'510.0
2018-Apr-20 12:28N 43°35' W 001°48'6210.2
2018-Apr-20 06:20N 44°37' W 001°51'4 0.6
2018-Apr-19 23:59N 44°41' W 001°50'5910.3
2018-Apr-19 18:15N 43°42' W 001°46'310.2
2018-Apr-19 18:00N 43°39' W 001°46'510.5
2018-Apr-19 17:31N 43°34' W 001°46'610.6
2018-Apr-19 16:58N 43°29' W 001°47'510.4
2018-Apr-19 16:30N 43°24' W 001°47'1 1.3
2018-Apr-19 16:00N 43°23' W 001°47'0 0.2
2018-Apr-19 15:30N 43°23' W 001°48'0 0.0
2018-Apr-19 15:00N 43°23' W 001°48'0 0.0
2018-Apr-19 14:30N 43°23' W 001°48'0 0.0
2018-Apr-19 14:01N 43°23' W 001°48'4 7.0
2018-Apr-19 13:31N 43°27' W 001°46'611.1
2018-Apr-19 13:00N 43°32' W 001°46'510.4
2018-Apr-19 12:29N 43°38' W 001°46'4010.1
2018-Apr-19 08:33N 44°17' W 001°44'110.3
2018-Apr-19 08:26N 44°19' W 001°44'410.2
2018-Apr-19 08:00N 44°23' W 001°44'510.5
2018-Apr-19 07:29N 44°28' W 001°43'510.0
2018-Apr-19 07:00N 44°33' W 001°43'3 3.5
2018-Apr-19 06:13N 44°36' W 001°43'0 0.5
2018-Apr-19 06:00N 44°36' W 001°42'0 0.3
2018-Apr-19 05:30N 44°36' W 001°42'0 0.7
2018-Apr-19 05:00N 44°36' W 001°43'0 0.3
2018-Apr-19 04:29N 44°37' W 001°43'1 2.2
2018-Apr-19 04:00N 44°37' W 001°44'3 5.3
2018-Apr-19 03:30N 44°40' W 001°45'0 0.5
2018-Apr-19 03:00N 44°40' W 001°46'0 0.4
2018-Apr-19 02:30N 44°39' W 001°46'0 0.7
2018-Apr-19 02:00N 44°40' W 001°46'2 3.4
2018-Apr-19 01:30N 44°41' W 001°48'0 0.4
2018-Apr-19 00:59N 44°40' W 001°48'1 1.0
2018-Apr-19 00:07N 44°41' W 001°49'0 3.4
2018-Apr-18 23:58N 44°40' W 001°49'710.2
2018-Apr-18 23:19N 44°34' W 001°49'910.5
2018-Apr-18 22:28N 44°25' W 001°49'4210.5
2018-Apr-18 18:26N 43°42' W 001°48'510.8
2018-Apr-18 18:01N 43°38' W 001°48'510.8
2018-Apr-18 17:30N 43°32' W 001°47'510.4
2018-Apr-18 17:00N 43°27' W 001°47'4 8.2
2018-Apr-18 16:31N 43°23' W 001°47'0 0.2
2018-Apr-18 16:00N 43°23' W 001°48'0 0.0
2018-Apr-18 15:30N 43°23' W 001°48'0 0.0
2018-Apr-18 15:00N 43°23' W 001°48'0 0.0
2018-Apr-18 14:31N 43°23' W 001°48'0 0.1
2018-Apr-18 13:58N 43°23' W 001°47'2 4.6
2018-Apr-18 13:31N 43°25' W 001°47'510.0
2018-Apr-18 13:00N 43°30' W 001°48'510.2
2018-Apr-18 12:31N 43°35' W 001°48'4110.4
2018-Apr-18 08:35N 44°16' W 001°50'110.3
2018-Apr-18 08:30N 44°17' W 001°50'510.2
2018-Apr-18 07:58N 44°23' W 001°51'510.0
2018-Apr-18 07:30N 44°27' W 001°51'4 8.0
2018-Apr-18 06:58N 44°32' W 001°52'0 0.8
2018-Apr-18 06:30N 44°32' W 001°52'0 0.4
2018-Apr-18 06:00N 44°32' W 001°51'0 0.4
2018-Apr-18 05:27N 44°32' W 001°51'0 0.4
2018-Apr-18 05:00N 44°32' W 001°51'0 0.4
2018-Apr-18 04:31N 44°33' W 001°51'1 1.2
2018-Apr-18 04:00N 44°32' W 001°50'2 4.3
2018-Apr-18 03:30N 44°30' W 001°51'0 0.7
2018-Apr-18 02:53N 44°30' W 001°51'1 3.6
2018-Apr-18 02:30N 44°30' W 001°53'4 7.2
2018-Apr-18 02:00N 44°26' W 001°51'1 1.1
2018-Apr-18 01:30N 44°26' W 001°50'0 0.3
2018-Apr-18 00:58N 44°26' W 001°50'1 2.8
2018-Apr-18 00:30N 44°27' W 001°50'3 5.9
2018-Apr-18 00:00N 44°30' W 001°49'2 3.8
2018-Apr-17 23:31N 44°30' W 001°47'0 0.7
2018-Apr-17 23:00N 44°30' W 001°47'0 0.6
2018-Apr-17 22:30N 44°30' W 001°47'3 6.2
2018-Apr-17 21:58N 44°27' W 001°48'4 8.5
2018-Apr-17 21:30N 44°26' W 001°53'33 9.5
2018-Apr-17 17:59N 43°53' W 001°46'8 9.6
2018-Apr-17 17:09N 43°45' W 001°47'1 9.5
2018-Apr-17 17:00N 43°43' W 001°47'5 9.6
2018-Apr-17 16:30N 43°39' W 001°47'6 9.9
2018-Apr-17 15:53N 43°32' W 001°47'410.1
2018-Apr-17 15:26N 43°28' W 001°47'410.3
2018-Apr-17 15:01N 43°24' W 001°47'0 0.9
2018-Apr-17 14:30N 43°23' W 001°47'0 0.0
2018-Apr-17 14:00N 43°23' W 001°47'0 0.5
2018-Apr-17 13:31N 43°23' W 001°47'510.4
2018-Apr-17 12:59N 43°28' W 001°47'610.7
2018-Apr-17 12:28N 43°34' W 001°47'710.7
2018-Apr-17 11:50N 43°41' W 001°48'37 4.0
2018-Apr-17 02:45N 44°17' W 001°45'0 0.5
2018-Apr-17 02:28N 44°17' W 001°45'15 7.6
2018-Apr-17 00:29N 44°03' W 001°52'5 9.8
2018-Apr-17 00:00N 43°59' W 001°54'4 7.1
2018-Apr-16 23:25N 43°55' W 001°56'0 0.3
2018-Apr-16 23:00N 43°55' W 001°56'0 0.2
2018-Apr-16 22:30N 43°55' W 001°56'0 0.2
2018-Apr-16 21:59N 43°54' W 001°56'0 0.3
2018-Apr-16 21:30N 43°54' W 001°56'12 6.7
2018-Apr-16 19:47N 44°03' W 001°45'39 3.0
2018-Apr-16 06:45N 43°25' W 001°53'2 9.1
2018-Apr-16 06:30N 43°25' W 001°50'2 4.8
2018-Apr-16 06:01N 43°23' W 001°47'  
2018-Apr-13 16:56N 43°23' W 001°48'0 0.0
2018-Apr-13 12:59N 43°23' W 001°48'0 0.0
2018-Apr-13 12:00N 43°23' W 001°48'1 1.4
2018-Apr-13 11:30N 43°24' W 001°47'18 5.2
2018-Apr-13 07:59N 43°25' W 002°12'0 0.5
2018-Apr-13 07:31N 43°25' W 002°12'3 2.4
2018-Apr-13 06:23N 43°23' W 002°15'2 1.0
2018-Apr-13 04:34N 43°24' W 002°13'110.4
2018-Apr-13 04:28N 43°24' W 002°15'4 7.8
2018-Apr-13 04:01N 43°23' W 002°19'20 1.6
2018-Apr-12 15:35N 43°30' W 001°53'3 9.5
2018-Apr-12 15:16N 43°32' W 001°49'2 5.9
2018-Apr-12 14:59N 43°30' W 001°48'5 9.1
2018-Apr-12 14:25N 43°25' W 001°49'2 4.6
2018-Apr-12 14:00N 43°23' W 001°47'0 0.0
2018-Apr-12 12:10N 43°23' W 001°47'0 0.0
2018-Apr-12 12:00N 43°23' W 001°47'0 0.0
2018-Apr-12 11:31N 43°23' W 001°47'0 0.0
2018-Apr-12 11:00N 43°23' W 001°47'0 0.0
2018-Apr-12 10:30N 43°23' W 001°47'0 0.0
2018-Apr-12 10:00N 43°23' W 001°47'0 0.0
2018-Apr-12 09:30N 43°23' W 001°47'0 0.0
2018-Apr-12 09:00N 43°23' W 001°47'0 0.0
2018-Apr-12 08:30N 43°23' W 001°47'0 0.0
2018-Apr-12 08:00N 43°23' W 001°47'0 0.0
2018-Apr-12 07:27N 43°23' W 001°47'0 0.0
2018-Apr-12 07:00N 43°23' W 001°47'0 0.0
2018-Apr-11 08:45N 43°23' W 001°47'0 0.0
2018-Apr-11 08:29N 43°23' W 001°47'0 0.0
2018-Apr-11 08:00N 43°23' W 001°47'0 0.0
2018-Apr-11 07:30N 43°23' W 001°47'0 0.0
2018-Apr-11 07:00N 43°23' W 001°47'0 0.0
2018-Apr-11 06:30N 43°23' W 001°47'2 4.0
2018-Apr-11 06:00N 43°25' W 001°46'5 9.3
2018-Apr-11 05:30N 43°29' W 001°45'5 9.3
2018-Apr-11 04:59N 43°34' W 001°43'  
Track history (hours):
 
Tides and Currents Weather Stations Pressure Air Temp Water Temp Dewpoint Dewpoint Depression Visibility Wind Speed Wind Dir Waves Ship Positions

Gure Amuitz

Last reported at 2018-Apr-20 17:36 UTC. Time now 2018-Apr-21 11:52 UTC.
Position N 43°23' W 001°48'.

Length 28 m.

Type: Fishing. MMSI: 224010590.

Date/timePositionNaut miles runAvg speedWind from/ knotsBaromVisibWave heightAir tempDewpointWater temp
2018-Apr-20 17:36N 43°23' W 001°48'0 0.0
2018-Apr-20 17:30N 43°23' W 001°48'0 0.0
2018-Apr-20 17:00N 43°23' W 001°48'0 0.0
2018-Apr-20 16:30N 43°23' W 001°48'0 0.0
2018-Apr-20 16:00N 43°23' W 001°48'0 0.0
2018-Apr-20 15:30N 43°23' W 001°48'0 0.0
2018-Apr-20 15:00N 43°23' W 001°48'0 0.0
2018-Apr-20 14:30N 43°23' W 001°48'0 0.0
2018-Apr-20 14:00N 43°23' W 001°48'2 3.2
2018-Apr-20 13:30N 43°25' W 001°47'510.0
2018-Apr-20 12:59N 43°30' W 001°47'510.0
2018-Apr-20 12:28N 43°35' W 001°48'6210.2
2018-Apr-20 06:20N 44°37' W 001°51'4 0.6
2018-Apr-19 23:59N 44°41' W 001°50'5910.3
2018-Apr-19 18:15N 43°42' W 001°46'310.2
2018-Apr-19 18:00N 43°39' W 001°46'510.5
2018-Apr-19 17:31N 43°34' W 001°46'610.6
2018-Apr-19 16:58N 43°29' W 001°47'510.4
2018-Apr-19 16:30N 43°24' W 001°47'1 1.3
2018-Apr-19 16:00N 43°23' W 001°47'0 0.2
2018-Apr-19 15:30N 43°23' W 001°48'0 0.0
2018-Apr-19 15:00N 43°23' W 001°48'0 0.0
2018-Apr-19 14:30N 43°23' W 001°48'0 0.0
2018-Apr-19 14:01N 43°23' W 001°48'4 7.0
2018-Apr-19 13:31N 43°27' W 001°46'611.1
2018-Apr-19 13:00N 43°32' W 001°46'510.4
2018-Apr-19 12:29N 43°38' W 001°46'4010.1
2018-Apr-19 08:33N 44°17' W 001°44'110.3
2018-Apr-19 08:26N 44°19' W 001°44'410.2
2018-Apr-19 08:00N 44°23' W 001°44'510.5
2018-Apr-19 07:29N 44°28' W 001°43'510.0
2018-Apr-19 07:00N 44°33' W 001°43'3 3.5
2018-Apr-19 06:13N 44°36' W 001°43'0 0.5
2018-Apr-19 06:00N 44°36' W 001°42'0 0.3
2018-Apr-19 05:30N 44°36' W 001°42'0 0.7
2018-Apr-19 05:00N 44°36' W 001°43'0 0.3
2018-Apr-19 04:29N 44°37' W 001°43'1 2.2
2018-Apr-19 04:00N 44°37' W 001°44'3 5.3
2018-Apr-19 03:30N 44°40' W 001°45'0 0.5
2018-Apr-19 03:00N 44°40' W 001°46'0 0.4
2018-Apr-19 02:30N 44°39' W 001°46'0 0.7
2018-Apr-19 02:00N 44°40' W 001°46'2 3.4
2018-Apr-19 01:30N 44°41' W 001°48'0 0.4
2018-Apr-19 00:59N 44°40' W 001°48'1 1.0
2018-Apr-19 00:07N 44°41' W 001°49'0 3.4
2018-Apr-18 23:58N 44°40' W 001°49'710.2
2018-Apr-18 23:19N 44°34' W 001°49'910.5
2018-Apr-18 22:28N 44°25' W 001°49'4210.5
2018-Apr-18 18:26N 43°42' W 001°48'510.8
2018-Apr-18 18:01N 43°38' W 001°48'510.8
2018-Apr-18 17:30N 43°32' W 001°47'510.4
2018-Apr-18 17:00N 43°27' W 001°47'4 8.2
2018-Apr-18 16:31N 43°23' W 001°47'0 0.2
2018-Apr-18 16:00N 43°23' W 001°48'0 0.0
2018-Apr-18 15:30N 43°23' W 001°48'0 0.0
2018-Apr-18 15:00N 43°23' W 001°48'0 0.0
2018-Apr-18 14:31N 43°23' W 001°48'0 0.1
2018-Apr-18 13:58N 43°23' W 001°47'2 4.6
2018-Apr-18 13:31N 43°25' W 001°47'510.0
2018-Apr-18 13:00N 43°30' W 001°48'510.2
2018-Apr-18 12:31N 43°35' W 001°48'4110.4
2018-Apr-18 08:35N 44°16' W 001°50'110.3
2018-Apr-18 08:30N 44°17' W 001°50'510.2
2018-Apr-18 07:58N 44°23' W 001°51'510.0
2018-Apr-18 07:30N 44°27' W 001°51'4 8.0
2018-Apr-18 06:58N 44°32' W 001°52'0 0.8
2018-Apr-18 06:30N 44°32' W 001°52'0 0.4
2018-Apr-18 06:00N 44°32' W 001°51'0 0.4
2018-Apr-18 05:27N 44°32' W 001°51'0 0.4
2018-Apr-18 05:00N 44°32' W 001°51'0 0.4
2018-Apr-18 04:31N 44°33' W 001°51'1 1.2
2018-Apr-18 04:00N 44°32' W 001°50'2 4.3
2018-Apr-18 03:30N 44°30' W 001°51'0 0.7
2018-Apr-18 02:53N 44°30' W 001°51'1 3.6
2018-Apr-18 02:30N 44°30' W 001°53'4 7.2
2018-Apr-18 02:00N 44°26' W 001°51'1 1.1
2018-Apr-18 01:30N 44°26' W 001°50'0 0.3
2018-Apr-18 00:58N 44°26' W 001°50'1 2.8
2018-Apr-18 00:30N 44°27' W 001°50'3 5.9
2018-Apr-18 00:00N 44°30' W 001°49'2 3.8
2018-Apr-17 23:31N 44°30' W 001°47'0 0.7
2018-Apr-17 23:00N 44°30' W 001°47'0 0.6
2018-Apr-17 22:30N 44°30' W 001°47'3 6.2
2018-Apr-17 21:58N 44°27' W 001°48'4 8.5
2018-Apr-17 21:30N 44°26' W 001°53'33 9.5
2018-Apr-17 17:59N 43°53' W 001°46'8 9.6
2018-Apr-17 17:09N 43°45' W 001°47'1 9.5
2018-Apr-17 17:00N 43°43' W 001°47'5 9.6
2018-Apr-17 16:30N 43°39' W 001°47'6 9.9
2018-Apr-17 15:53N 43°32' W 001°47'410.1
2018-Apr-17 15:26N 43°28' W 001°47'410.3
2018-Apr-17 15:01N 43°24' W 001°47'0 0.9
2018-Apr-17 14:30N 43°23' W 001°47'0 0.0
2018-Apr-17 14:00N 43°23' W 001°47'0 0.5
2018-Apr-17 13:31N 43°23' W 001°47'510.4
2018-Apr-17 12:59N 43°28' W 001°47'610.7
2018-Apr-17 12:28N 43°34' W 001°47'710.7
2018-Apr-17 11:50N 43°41' W 001°48'37 4.0
2018-Apr-17 02:45N 44°17' W 001°45'0 0.5
2018-Apr-17 02:28N 44°17' W 001°45'15 7.6
2018-Apr-17 00:29N 44°03' W 001°52'5 9.8
2018-Apr-17 00:00N 43°59' W 001°54'4 7.1
2018-Apr-16 23:25N 43°55' W 001°56'0 0.3
2018-Apr-16 23:00N 43°55' W 001°56'0 0.2
2018-Apr-16 22:30N 43°55' W 001°56'0 0.2
2018-Apr-16 21:59N 43°54' W 001°56'0 0.3
2018-Apr-16 21:30N 43°54' W 001°56'12 6.7
2018-Apr-16 19:47N 44°03' W 001°45'39 3.0
2018-Apr-16 06:45N 43°25' W 001°53'2 9.1
2018-Apr-16 06:30N 43°25' W 001°50'2 4.8
2018-Apr-16 06:01N 43°23' W 001°47'  
2018-Apr-13 16:56N 43°23' W 001°48'0 0.0
2018-Apr-13 12:59N 43°23' W 001°48'0 0.0
2018-Apr-13 12:00N 43°23' W 001°48'1 1.4
2018-Apr-13 11:30N 43°24' W 001°47'18 5.2
2018-Apr-13 07:59N 43°25' W 002°12'0 0.5
2018-Apr-13 07:31N 43°25' W 002°12'3 2.4
2018-Apr-13 06:23N 43°23' W 002°15'2 1.0
2018-Apr-13 04:34N 43°24' W 002°13'110.4
2018-Apr-13 04:28N 43°24' W 002°15'4 7.8
2018-Apr-13 04:01N 43°23' W 002°19'20 1.6
2018-Apr-12 15:35N 43°30' W 001°53'3 9.5
2018-Apr-12 15:16N 43°32' W 001°49'2 5.9
2018-Apr-12 14:59N 43°30' W 001°48'5 9.1
2018-Apr-12 14:25N 43°25' W 001°49'2 4.6
2018-Apr-12 14:00N 43°23' W 001°47'0 0.0
2018-Apr-12 12:10N 43°23' W 001°47'0 0.0
2018-Apr-12 12:00N 43°23' W 001°47'0 0.0
2018-Apr-12 11:31N 43°23' W 001°47'0 0.0
2018-Apr-12 11:00N 43°23' W 001°47'0 0.0
2018-Apr-12 10:30N 43°23' W 001°47'0 0.0
2018-Apr-12 10:00N 43°23' W 001°47'0 0.0
2018-Apr-12 09:30N 43°23' W 001°47'0 0.0
2018-Apr-12 09:00N 43°23' W 001°47'0 0.0
2018-Apr-12 08:30N 43°23' W 001°47'0 0.0
2018-Apr-12 08:00N 43°23' W 001°47'0 0.0
2018-Apr-12 07:27N 43°23' W 001°47'0 0.0
2018-Apr-12 07:00N 43°23' W 001°47'0 0.0
2018-Apr-11 08:45N 43°23' W 001°47'0 0.0
2018-Apr-11 08:29N 43°23' W 001°47'0 0.0
2018-Apr-11 08:00N 43°23' W 001°47'0 0.0
2018-Apr-11 07:30N 43°23' W 001°47'0 0.0
2018-Apr-11 07:00N 43°23' W 001°47'0 0.0
2018-Apr-11 06:30N 43°23' W 001°47'2 4.0
2018-Apr-11 06:00N 43°25' W 001°46'5 9.3
2018-Apr-11 05:30N 43°29' W 001°45'5 9.3
2018-Apr-11 04:59N 43°34' W 001°43'  

Dump ship's entire track history